createdAt,value
2023-09-25T00:00:33.462Z,12.40
2023-09-25T00:03:01.768Z,12.30
2023-09-25T00:05:29.593Z,12.40
2023-09-25T00:07:57.422Z,12.40
2023-09-25T00:10:24.674Z,12.40
2023-09-25T00:12:51.504Z,12.20
2023-09-25T00:15:18.410Z,12.20
2023-09-25T00:17:45.283Z,12.00
2023-09-25T00:20:12.393Z,12.00
2023-09-25T00:22:40.559Z,12.00
2023-09-25T00:25:08.628Z,11.90
2023-09-25T00:27:35.641Z,11.80
2023-09-25T00:30:06.877Z,11.80
2023-09-25T00:32:34.519Z,11.90
2023-09-25T00:35:02.144Z,11.60
2023-09-25T00:37:28.865Z,11.40
2023-09-25T00:39:56.437Z,11.50
2023-09-25T00:42:23.814Z,11.50
2023-09-25T00:44:50.606Z,11.30
2023-09-25T00:47:17.819Z,11.30
2023-09-25T00:49:44.664Z,11.30
2023-09-25T00:52:13.378Z,11.50
2023-09-25T00:54:42.072Z,11.50
2023-09-25T00:57:11.406Z,11.50
2023-09-25T00:59:40.526Z,11.40
2023-09-25T01:02:07.830Z,11.40
2023-09-25T01:04:35.097Z,11.30
2023-09-25T01:07:02.455Z,11.40
2023-09-25T01:09:29.359Z,11.40
2023-09-25T01:11:56.106Z,11.40
2023-09-25T01:14:23.225Z,11.50
2023-09-25T01:16:50.033Z,11.70
2023-09-25T01:19:16.835Z,11.70
2023-09-25T01:21:46.299Z,11.70
2023-09-25T01:24:13.047Z,11.80
2023-09-25T01:26:40.170Z,11.80
2023-09-25T01:29:06.906Z,11.80
2023-09-25T01:31:33.652Z,11.80
2023-09-25T01:34:00.467Z,11.80
2023-09-25T01:36:27.336Z,11.80
2023-09-25T01:38:54.104Z,11.80
2023-09-25T01:41:20.811Z,11.60
2023-09-25T01:43:47.569Z,11.60
2023-09-25T01:46:14.303Z,11.60
2023-09-25T01:48:40.981Z,11.50
2023-09-25T01:51:11.605Z,11.70
2023-09-25T01:53:38.795Z,11.60
2023-09-25T01:56:14.984Z,11.60
2023-09-25T01:58:43.585Z,11.60
2023-09-25T02:01:11.000Z,11.50
2023-09-25T02:03:38.165Z,11.20
2023-09-25T02:06:05.696Z,11.10
2023-09-25T02:08:32.817Z,11.00
2023-09-25T02:10:59.922Z,11.00
2023-09-25T02:13:26.911Z,11.10
2023-09-25T02:15:54.620Z,11.10
2023-09-25T02:18:21.665Z,11.00
2023-09-25T02:20:48.518Z,10.80
2023-09-25T02:23:15.229Z,10.60
2023-09-25T02:25:42.031Z,10.60
2023-09-25T02:28:09.253Z,10.70
2023-09-25T02:30:35.981Z,10.80
2023-09-25T02:33:03.088Z,11.00
2023-09-25T02:35:29.920Z,11.00
2023-09-25T02:37:56.724Z,11.10
2023-09-25T02:40:23.580Z,11.20
2023-09-25T02:42:50.381Z,11.30
2023-09-25T02:45:17.695Z,11.30
2023-09-25T02:47:45.424Z,11.30
2023-09-25T02:50:13.163Z,11.30
2023-09-25T02:52:39.948Z,11.30
2023-09-25T02:55:06.992Z,11.20
2023-09-25T02:57:33.813Z,11.10
2023-09-25T03:00:00.912Z,11.10
2023-09-25T03:02:27.780Z,11.10
2023-09-25T03:04:55.293Z,11.10
2023-09-25T03:07:22.775Z,11.20
2023-09-25T03:09:49.952Z,11.30
2023-09-25T03:12:16.994Z,11.30
2023-09-25T03:14:43.981Z,11.20
2023-09-25T03:17:10.735Z,11.10
2023-09-25T03:19:39.334Z,10.80
2023-09-25T03:22:06.262Z,10.80
2023-09-25T03:24:33.265Z,10.70
2023-09-25T03:27:00.144Z,10.80
2023-09-25T03:29:26.939Z,10.90
2023-09-25T03:31:53.639Z,10.90
2023-09-25T03:34:21.483Z,11.10
2023-09-25T03:36:48.249Z,11.10
2023-09-25T03:39:15.537Z,11.20
2023-09-25T03:41:42.212Z,11.10
2023-09-25T03:44:08.937Z,11.10
2023-09-25T03:46:35.680Z,11.10
2023-09-25T03:49:06.907Z,10.90
2023-09-25T03:51:34.420Z,10.80
2023-09-25T03:54:01.743Z,10.90
2023-09-25T03:56:30.463Z,10.90
2023-09-25T03:58:57.407Z,10.90
2023-09-25T04:01:24.276Z,10.90
2023-09-25T04:03:51.510Z,10.90
2023-09-25T04:06:19.509Z,10.90
2023-09-25T04:08:46.567Z,10.70
2023-09-25T04:11:13.265Z,10.70
2023-09-25T04:13:41.285Z,10.70
2023-09-25T04:16:08.098Z,10.60
2023-09-25T04:18:35.131Z,10.40
2023-09-25T04:21:07.016Z,10.50
2023-09-25T04:23:34.745Z,10.70
2023-09-25T04:26:01.985Z,10.70
2023-09-25T04:28:31.769Z,10.60
2023-09-25T04:30:58.645Z,10.50
2023-09-25T04:33:26.063Z,10.50
2023-09-25T04:35:56.699Z,10.50
2023-09-25T04:38:23.370Z,10.40
2023-09-25T04:40:50.771Z,10.40
2023-09-25T04:43:18.780Z,10.40
2023-09-25T04:45:47.041Z,10.30
2023-09-25T04:48:14.636Z,10.40
2023-09-25T04:50:44.441Z,10.30
2023-09-25T04:53:11.481Z,10.30
2023-09-25T04:55:41.752Z,10.20
2023-09-25T04:58:09.054Z,10.20
2023-09-25T05:00:35.915Z,10.20
2023-09-25T05:03:02.694Z,10.30
2023-09-25T05:05:29.505Z,10.30
2023-09-25T05:07:57.583Z,10.30
2023-09-25T05:10:27.250Z,10.30
2023-09-25T05:12:55.220Z,10.30
2023-09-25T05:15:22.573Z,10.30
2023-09-25T05:17:50.302Z,10.50
2023-09-25T05:20:23.454Z,10.40
2023-09-25T05:22:52.727Z,10.40
2023-09-25T05:25:20.593Z,10.30
2023-09-25T05:27:49.772Z,10.40
2023-09-25T05:30:18.799Z,10.30
2023-09-25T05:32:47.490Z,10.30
2023-09-25T05:35:15.066Z,10.20
2023-09-25T05:37:43.255Z,10.30
2023-09-25T05:40:11.119Z,10.30
2023-09-25T05:42:43.726Z,10.30
2023-09-25T05:45:12.205Z,10.30
2023-09-25T05:47:39.419Z,10.30
2023-09-25T05:50:09.675Z,10.30
2023-09-25T05:52:40.596Z,10.30
2023-09-25T05:55:08.666Z,10.30
2023-09-25T05:57:36.207Z,10.30
2023-09-25T06:00:13.554Z,10.30
2023-09-25T06:02:42.023Z,10.40
2023-09-25T06:05:10.047Z,10.30
2023-09-25T06:07:36.723Z,10.30
2023-09-25T06:10:05.486Z,10.30
2023-09-25T06:12:32.752Z,10.40
2023-09-25T06:14:59.549Z,10.50
2023-09-25T06:17:29.526Z,10.40
2023-09-25T06:19:57.350Z,10.50
2023-09-25T06:22:24.202Z,10.50
2023-09-25T06:24:51.820Z,10.60
2023-09-25T06:27:18.768Z,10.60
2023-09-25T06:29:45.544Z,10.80
2023-09-25T06:32:12.904Z,10.90
2023-09-25T06:34:43.039Z,11.20
2023-09-25T06:37:10.039Z,11.30
2023-09-25T06:39:36.893Z,11.60
2023-09-25T06:42:04.635Z,11.60
2023-09-25T06:44:31.708Z,11.90
2023-09-25T06:46:58.571Z,12.30
2023-09-25T06:49:25.365Z,12.60
2023-09-25T06:51:52.122Z,12.80
2023-09-25T06:54:19.038Z,13.00
2023-09-25T06:56:45.754Z,13.30
2023-09-25T06:59:12.883Z,13.40
2023-09-25T07:01:39.805Z,13.70
2023-09-25T07:04:07.686Z,13.90
2023-09-25T07:06:34.846Z,14.30
2023-09-25T07:09:01.788Z,14.30
2023-09-25T07:11:28.531Z,14.50
2023-09-25T07:13:55.336Z,14.50
2023-09-25T07:16:22.252Z,14.50
2023-09-25T07:18:50.475Z,14.30
2023-09-25T07:21:17.677Z,14.30
2023-09-25T07:23:44.586Z,14.60
2023-09-25T07:26:11.397Z,14.40
2023-09-25T07:28:38.214Z,14.90
2023-09-25T07:31:06.982Z,15.20
2023-09-25T07:33:35.350Z,15.40
2023-09-25T07:36:04.641Z,15.20
2023-09-25T07:38:32.840Z,15.10
2023-09-25T07:41:02.249Z,15.40
2023-09-25T07:43:46.507Z,15.30
2023-09-25T07:46:19.581Z,15.50
2023-09-25T07:48:47.169Z,15.60
2023-09-25T07:51:14.413Z,15.50
2023-09-25T07:53:45.972Z,15.70
2023-09-25T07:56:13.138Z,15.90
2023-09-25T07:58:41.274Z,16.40
2023-09-25T08:01:10.098Z,16.30
2023-09-25T08:03:39.410Z,16.20
2023-09-25T08:06:07.227Z,16.10
2023-09-25T08:08:35.373Z,16.20
2023-09-25T08:11:02.549Z,16.10
2023-09-25T08:13:30.757Z,16.10
2023-09-25T08:16:07.323Z,16.20
2023-09-25T08:18:35.747Z,16.20
2023-09-25T08:21:02.861Z,16.40
2023-09-25T08:23:30.152Z,16.40
2023-09-25T08:25:57.439Z,16.20
2023-09-25T08:28:25.131Z,16.50
2023-09-25T08:30:51.990Z,16.70
2023-09-25T08:33:21.527Z,16.80
2023-09-25T08:35:48.239Z,16.70
2023-09-25T08:38:15.195Z,16.80
2023-09-25T08:40:48.327Z,16.80
2023-09-25T08:43:20.766Z,16.80
2023-09-25T08:45:49.861Z,16.80
2023-09-25T08:48:18.709Z,16.90
2023-09-25T08:50:47.022Z,17.10
2023-09-25T08:53:13.945Z,17.00
2023-09-25T08:55:41.832Z,17.30
2023-09-25T08:58:12.103Z,17.50
2023-09-25T09:00:40.232Z,17.50
2023-09-25T09:03:07.399Z,17.60
2023-09-25T09:05:34.376Z,17.70
2023-09-25T09:08:02.162Z,17.80
2023-09-25T09:10:35.871Z,17.80
2023-09-25T09:13:08.378Z,17.80
2023-09-25T09:15:35.844Z,18.10
2023-09-25T09:18:23.568Z,18.40
2023-09-25T09:20:53.388Z,18.40
2023-09-25T09:23:21.125Z,18.50
2023-09-25T09:25:49.033Z,18.70
2023-09-25T09:28:15.779Z,18.80
2023-09-25T09:30:46.399Z,18.70
2023-09-25T09:33:13.147Z,18.60
2023-09-25T09:35:39.888Z,18.70
2023-09-25T09:38:08.851Z,19.10
2023-09-25T09:40:35.779Z,19.10
2023-09-25T09:43:04.206Z,18.90
2023-09-25T09:45:32.214Z,19.00
2023-09-25T09:47:59.878Z,19.30
2023-09-25T09:50:31.883Z,19.50
2023-09-25T09:52:58.656Z,19.40
2023-09-25T09:55:29.027Z,19.40
2023-09-25T09:57:56.147Z,19.50
2023-09-25T10:00:24.808Z,19.40
2023-09-25T10:02:52.352Z,19.50
2023-09-25T10:05:19.309Z,19.40
2023-09-25T10:08:07.594Z,19.70
2023-09-25T10:10:36.860Z,19.90
2023-09-25T10:13:08.950Z,19.60
2023-09-25T10:15:37.160Z,19.60
2023-09-25T10:18:04.323Z,19.80
2023-09-25T10:20:42.495Z,20.10
2023-09-25T10:23:11.361Z,20.20
2023-09-25T10:25:48.079Z,20.00
2023-09-25T10:28:24.368Z,20.00
2023-09-25T10:30:52.617Z,19.90
2023-09-25T10:33:21.417Z,19.90
2023-09-25T10:35:52.538Z,20.10
2023-09-25T10:38:31.641Z,20.40
2023-09-25T10:41:09.930Z,20.30
2023-09-25T10:43:37.879Z,20.30
2023-09-25T10:46:05.347Z,20.30
2023-09-25T10:48:34.111Z,20.20
2023-09-25T10:51:01.213Z,20.30
2023-09-25T10:53:28.253Z,20.20
2023-09-25T10:55:55.338Z,20.40
2023-09-25T10:58:22.394Z,20.30
2023-09-25T11:00:53.282Z,20.30
2023-09-25T11:03:23.353Z,20.50
2023-09-25T11:05:50.840Z,20.80
2023-09-25T11:08:18.016Z,21.10
2023-09-25T11:10:46.789Z,21.00
2023-09-25T11:13:13.887Z,21.10
2023-09-25T11:15:42.574Z,21.00
2023-09-25T11:18:11.396Z,21.10
2023-09-25T11:20:39.347Z,21.00
2023-09-25T11:23:20.647Z,20.80
2023-09-25T11:25:51.540Z,20.80
2023-09-25T11:28:21.569Z,20.90
2023-09-25T11:30:50.152Z,20.90
2023-09-25T11:33:22.124Z,20.90
2023-09-25T11:35:52.436Z,21.00
2023-09-25T11:38:23.432Z,21.10
2023-09-25T11:40:54.301Z,21.00
2023-09-25T11:43:21.578Z,21.00
2023-09-25T11:45:49.508Z,21.30
2023-09-25T11:48:19.440Z,21.50
2023-09-25T11:50:47.101Z,21.40
2023-09-25T11:53:13.813Z,21.40
2023-09-25T11:55:40.635Z,21.40
2023-09-25T11:58:09.765Z,21.50
2023-09-25T12:00:36.968Z,21.40
2023-09-25T12:03:09.070Z,21.30
2023-09-25T12:05:36.553Z,21.30
2023-09-25T12:08:05.395Z,21.30
2023-09-25T12:10:38.826Z,21.60
2023-09-25T12:13:09.484Z,21.60
2023-09-25T12:15:37.255Z,21.60
2023-09-25T12:18:04.882Z,21.70
2023-09-25T12:20:32.087Z,21.50
2023-09-25T12:22:58.804Z,21.60
2023-09-25T12:25:26.160Z,21.80
2023-09-25T12:27:53.803Z,21.70
2023-09-25T12:30:21.016Z,21.50
2023-09-25T12:32:49.351Z,21.60
2023-09-25T12:35:17.481Z,21.60
2023-09-25T12:37:45.094Z,21.70
2023-09-25T12:40:14.910Z,21.90
2023-09-25T12:42:51.761Z,22.00
2023-09-25T12:45:22.927Z,22.20
2023-09-25T12:47:50.509Z,22.20
2023-09-25T12:50:17.264Z,22.20
2023-09-25T12:52:44.083Z,22.10
2023-09-25T12:55:10.935Z,22.20
2023-09-25T12:57:37.946Z,22.10
2023-09-25T13:00:06.924Z,22.20
2023-09-25T13:02:34.232Z,21.90
2023-09-25T13:05:01.284Z,21.80
2023-09-25T13:07:28.105Z,22.00
2023-09-25T13:09:54.926Z,21.90
2023-09-25T13:12:21.848Z,22.10
2023-09-25T13:14:48.559Z,22.20
2023-09-25T13:17:15.446Z,22.20
2023-09-25T13:19:43.502Z,22.10
2023-09-25T13:22:28.963Z,22.20
2023-09-25T13:25:00.059Z,22.10
2023-09-25T13:27:27.236Z,22.20
2023-09-25T13:29:54.138Z,22.20
2023-09-25T13:32:21.003Z,22.40
2023-09-25T13:34:47.846Z,22.30
2023-09-25T13:37:14.641Z,22.60
2023-09-25T13:39:41.403Z,22.40
2023-09-25T13:42:09.041Z,22.40
2023-09-25T13:44:36.623Z,22.20
2023-09-25T13:47:03.580Z,22.30
2023-09-25T13:49:30.413Z,22.10
2023-09-25T13:51:58.204Z,22.10
2023-09-25T13:54:25.060Z,22.10
2023-09-25T13:56:51.847Z,22.10
2023-09-25T13:59:18.923Z,22.30
2023-09-25T14:01:48.350Z,22.50
2023-09-25T14:04:17.099Z,22.20
2023-09-25T14:06:45.872Z,22.40
2023-09-25T14:09:13.364Z,22.30
2023-09-25T14:11:40.732Z,22.20
2023-09-25T14:14:09.325Z,22.40
2023-09-25T14:16:36.732Z,22.30
2023-09-25T14:19:04.328Z,22.40
2023-09-25T14:21:31.371Z,22.40
2023-09-25T14:23:58.195Z,22.40
2023-09-25T14:26:24.965Z,22.50
2023-09-25T14:28:51.861Z,22.40
2023-09-25T14:31:19.353Z,22.40
2023-09-25T14:33:46.527Z,22.50
2023-09-25T14:36:13.338Z,22.50
2023-09-25T14:38:40.307Z,22.60
2023-09-25T14:41:07.275Z,22.50
2023-09-25T14:43:35.121Z,22.30
2023-09-25T14:46:02.255Z,22.20
2023-09-25T14:48:29.333Z,22.40
2023-09-25T14:50:57.501Z,22.40
2023-09-25T14:53:24.371Z,22.40
2023-09-25T14:55:56.934Z,22.60
2023-09-25T14:58:24.793Z,22.50
2023-09-25T15:00:59.164Z,22.60
2023-09-25T15:03:27.318Z,22.50
2023-09-25T15:05:54.455Z,22.40
2023-09-25T15:08:24.435Z,22.30
2023-09-25T15:10:55.325Z,22.50
2023-09-25T15:13:22.290Z,22.60
2023-09-25T15:15:49.876Z,22.70
2023-09-25T15:18:19.842Z,22.70
2023-09-25T15:20:46.622Z,22.70
2023-09-25T15:23:13.316Z,22.50
2023-09-25T15:25:40.184Z,22.40
2023-09-25T15:28:07.165Z,22.50
2023-09-25T15:30:34.189Z,22.40
2023-09-25T15:33:01.180Z,22.40
2023-09-25T15:35:28.574Z,22.60
2023-09-25T15:40:24.993Z,22.30
2023-09-25T15:42:53.020Z,22.20
2023-09-25T15:45:20.653Z,22.30
2023-09-25T15:47:47.561Z,22.40
2023-09-25T15:50:14.802Z,22.20
2023-09-25T15:52:41.702Z,22.30
2023-09-25T15:55:08.858Z,22.20
2023-09-25T15:57:36.812Z,22.10
2023-09-25T16:00:06.995Z,22.10
2023-09-25T16:02:33.918Z,22.10
2023-09-25T16:05:00.818Z,22.20
2023-09-25T16:07:28.832Z,22.10
2023-09-25T16:09:56.179Z,22.20
2023-09-25T16:12:23.351Z,22.30
2023-09-25T16:14:50.204Z,22.20
2023-09-25T16:17:17.073Z,22.00
2023-09-25T16:19:43.931Z,22.00
2023-09-25T16:22:10.789Z,21.80
2023-09-25T16:24:37.647Z,21.70
2023-09-25T16:27:04.317Z,22.00
2023-09-25T16:29:31.048Z,22.10
2023-09-25T16:31:57.852Z,22.10
2023-09-25T16:34:24.661Z,21.90
2023-09-25T16:36:51.450Z,21.90
2023-09-25T16:39:18.174Z,21.90
2023-09-25T16:41:44.948Z,21.70
2023-09-25T16:44:12.002Z,21.70
2023-09-25T16:46:40.915Z,21.70
2023-09-25T16:49:08.045Z,21.60
2023-09-25T16:51:34.909Z,21.60
2023-09-25T16:54:01.865Z,21.50
2023-09-25T16:56:28.645Z,21.40
2023-09-25T16:58:55.831Z,21.30
2023-09-25T17:01:22.815Z,21.30
2023-09-25T17:03:49.958Z,21.40
2023-09-25T17:06:17.048Z,21.20
2023-09-25T17:08:43.862Z,21.10
2023-09-25T17:11:10.840Z,20.90
2023-09-25T17:13:37.593Z,20.70
2023-09-25T17:16:10.366Z,20.80
2023-09-25T17:18:37.496Z,20.70
2023-09-25T17:21:04.876Z,20.60
2023-09-25T17:23:31.722Z,20.80
2023-09-25T17:25:58.531Z,20.80
2023-09-25T17:28:25.250Z,20.70
2023-09-25T17:31:07.210Z,20.70
2023-09-25T17:33:36.192Z,20.50
2023-09-25T17:36:02.992Z,20.40
2023-09-25T17:38:31.970Z,20.20
2023-09-25T17:40:58.813Z,20.40
2023-09-25T17:43:26.802Z,20.30
2023-09-25T17:45:54.346Z,20.40
2023-09-25T17:48:21.546Z,20.20
2023-09-25T17:50:52.833Z,20.10
2023-09-25T17:53:20.287Z,20.00
2023-09-25T17:55:50.712Z,20.20
2023-09-25T17:58:29.346Z,20.00
2023-09-25T18:00:58.857Z,19.90
2023-09-25T18:03:25.970Z,19.90
2023-09-25T18:05:52.953Z,19.80
2023-09-25T18:08:19.711Z,19.80
2023-09-25T18:10:46.501Z,19.90
2023-09-25T18:13:13.322Z,19.70
2023-09-25T18:15:40.560Z,19.70
2023-09-25T18:18:08.817Z,19.70
2023-09-25T18:20:35.773Z,19.60
2023-09-25T18:23:02.627Z,19.50
2023-09-25T18:25:29.842Z,19.60
2023-09-25T18:27:56.707Z,19.60
2023-09-25T18:30:23.485Z,19.50
2023-09-25T18:32:50.293Z,19.50
2023-09-25T18:35:17.037Z,19.50
2023-09-25T18:37:43.729Z,19.40
2023-09-25T18:40:11.104Z,19.40
2023-09-25T18:42:39.841Z,19.30
2023-09-25T18:45:07.982Z,19.20
2023-09-25T18:47:36.255Z,19.30
2023-09-25T18:50:04.065Z,19.20
2023-09-25T18:52:34.844Z,19.20
2023-09-25T18:55:02.025Z,19.20
2023-09-25T18:57:28.881Z,19.10
2023-09-25T18:59:55.752Z,19.10
2023-09-25T19:02:22.521Z,19.20
2023-09-25T19:04:51.183Z,19.20
2023-09-25T19:07:20.345Z,19.10
2023-09-25T19:09:49.312Z,19.00
2023-09-25T19:12:16.059Z,18.90
2023-09-25T19:14:42.840Z,18.90
2023-09-25T19:17:09.954Z,18.90
2023-09-25T19:19:40.001Z,18.90
2023-09-25T19:22:07.025Z,18.70
2023-09-25T19:24:33.950Z,18.60
2023-09-25T19:27:00.935Z,18.50
2023-09-25T19:29:28.207Z,18.50
2023-09-25T19:31:55.099Z,18.40
2023-09-25T19:34:22.317Z,18.30
2023-09-25T19:36:49.130Z,18.30
2023-09-25T19:39:15.881Z,18.40
2023-09-25T19:41:42.632Z,18.20
2023-09-25T19:44:09.427Z,17.90
2023-09-25T19:46:37.416Z,18.10
2023-09-25T19:49:05.242Z,18.10
2023-09-25T19:51:34.773Z,18.10
2023-09-25T19:54:01.978Z,18.10
2023-09-25T19:56:29.082Z,18.10
2023-09-25T19:58:55.915Z,18.10
2023-09-25T20:01:22.878Z,18.10
2023-09-25T20:03:49.981Z,18.10
2023-09-25T20:06:17.072Z,18.00
2023-09-25T20:08:43.860Z,17.80
2023-09-25T20:11:10.740Z,17.70
2023-09-25T20:13:37.561Z,17.60
2023-09-25T20:16:05.400Z,17.50
2023-09-25T20:18:32.269Z,17.40
2023-09-25T20:20:59.588Z,17.20
2023-09-25T20:23:27.352Z,17.20
2023-09-25T20:25:54.676Z,17.00
2023-09-25T20:28:21.754Z,17.00
2023-09-25T20:30:48.908Z,17.00
2023-09-25T20:33:16.055Z,17.20
2023-09-25T20:35:42.873Z,17.30
2023-09-25T20:38:09.634Z,17.40
2023-09-25T20:40:36.487Z,17.50
2023-09-25T20:43:03.330Z,17.40
2023-09-25T20:45:30.104Z,17.30
2023-09-25T20:47:57.634Z,17.40
2023-09-25T20:50:27.869Z,17.30
2023-09-25T20:52:55.323Z,17.30
2023-09-25T20:55:22.207Z,17.30
2023-09-25T20:57:49.476Z,17.30
2023-09-25T21:00:16.921Z,17.20
2023-09-25T21:02:43.906Z,17.20
2023-09-25T21:05:11.271Z,17.20
2023-09-25T21:07:38.506Z,17.20
2023-09-25T21:10:06.340Z,17.10
2023-09-25T21:12:33.244Z,17.00
2023-09-25T21:15:00.158Z,17.00
2023-09-25T21:17:27.047Z,16.90
2023-09-25T21:19:53.777Z,16.90
2023-09-25T21:22:20.510Z,16.80
2023-09-25T21:24:49.409Z,16.80
2023-09-25T21:27:17.032Z,16.80
2023-09-25T21:29:44.266Z,16.80
2023-09-25T21:32:11.922Z,16.80
2023-09-25T21:34:38.650Z,16.70
2023-09-25T21:37:05.575Z,16.70
2023-09-25T21:39:32.654Z,16.60
2023-09-25T21:41:59.665Z,16.60
2023-09-25T21:44:29.382Z,16.60
2023-09-25T21:46:57.825Z,16.50
2023-09-25T21:49:24.784Z,16.50
2023-09-25T21:51:51.521Z,16.40
2023-09-25T21:54:18.358Z,16.40
2023-09-25T21:56:45.205Z,16.30
2023-09-25T21:59:11.936Z,16.30
2023-09-25T22:01:38.691Z,16.30
2023-09-25T22:04:06.802Z,16.20
2023-09-25T22:06:33.965Z,16.20
2023-09-25T22:09:00.804Z,16.00
2023-09-25T22:11:27.570Z,16.20
2023-09-25T22:13:55.735Z,16.10
2023-09-25T22:16:23.272Z,16.10
2023-09-25T22:18:50.302Z,16.00
2023-09-25T22:21:17.154Z,15.90
2023-09-25T22:23:44.470Z,15.90
2023-09-25T22:26:12.345Z,15.90
2023-09-25T22:28:43.950Z,15.80
2023-09-25T22:31:16.036Z,15.80
2023-09-25T22:33:49.779Z,15.90
2023-09-25T22:36:17.382Z,15.90
2023-09-25T22:38:44.673Z,15.90
2023-09-25T22:41:11.495Z,15.70
2023-09-25T22:43:38.220Z,15.70
2023-09-25T22:46:05.020Z,15.70
2023-09-25T22:48:33.125Z,15.70
2023-09-25T22:51:00.042Z,15.70
2023-09-25T22:53:26.777Z,15.70
2023-09-25T22:55:54.272Z,15.70
2023-09-25T22:58:21.070Z,15.60
2023-09-25T23:00:52.274Z,15.60
2023-09-25T23:03:19.686Z,15.60
2023-09-25T23:05:47.591Z,15.60
2023-09-25T23:08:14.431Z,15.60
2023-09-25T23:10:41.110Z,15.50
2023-09-25T23:13:07.851Z,15.50
2023-09-25T23:15:34.594Z,15.50
2023-09-25T23:18:01.631Z,15.40
2023-09-25T23:20:28.529Z,15.40
2023-09-25T23:22:56.553Z,15.30
2023-09-25T23:25:28.082Z,15.20
2023-09-25T23:27:55.647Z,15.10
2023-09-25T23:30:23.452Z,15.10
2023-09-25T23:32:52.538Z,15.00
2023-09-25T23:35:20.400Z,15.10
2023-09-25T23:37:48.396Z,15.00
2023-09-25T23:40:17.581Z,15.10
2023-09-25T23:42:44.867Z,15.10
2023-09-25T23:45:13.662Z,15.10
2023-09-25T23:47:41.426Z,15.10
2023-09-25T23:50:08.919Z,15.00
2023-09-25T23:52:36.764Z,15.00
2023-09-25T23:55:08.035Z,15.00
2023-09-25T23:57:39.527Z,15.00
